Time;durP1;ratioP1;P1;durP2;ratioP2;P2;SDS_P1;SDS_P2;PMS_P1;PMS_P2;Temp;Humidity;BMP_temperature;BMP_pressure;BME280_temperature;BME280_humidity;BME280_pressure;Samples;Min_cycle;Max_cycle;Signal;HPM_P1;HPM_P2
2022/06/29 00:00:09;;;;;;;2.13;1.93;;;;;;;;;;5051754;28;20619;-56
2022/06/29 00:02:36;;;;;;;4.00;1.83;;;;;;;;;;5051519;28;20744;-56
2022/06/29 00:05:03;;;;;;;3.80;2.00;;;;;;;;;;5051619;28;20195;-55
2022/06/29 00:07:29;;;;;;;2.47;1.87;;;;;;;;;;5051676;28;20270;-56
2022/06/29 00:09:55;;;;;;;2.87;1.90;;;;;;;;;;5051848;28;20659;-56
2022/06/29 00:12:21;;;;;;;2.17;1.90;;;;;;;;;;5051697;28;20192;-54
2022/06/29 00:14:47;;;;;;;1.77;1.63;;;;;;;;;;5051577;28;20224;-53
2022/06/29 00:17:13;;;;;;;5.23;2.20;;;;;;;;;;5051336;28;20656;-54
2022/06/29 00:19:39;;;;;;;2.27;1.70;;;;;;;;;;5051510;28;20213;-54
2022/06/29 00:22:07;;;;;;;2.43;1.77;;;;;;;;;;5051509;28;20251;-53
2022/06/29 00:24:34;;;;;;;5.07;2.00;;;;;;;;;;5051535;28;20279;-54
2022/06/29 00:27:00;;;;;;;2.50;1.73;;;;;;;;;;5051536;28;20220;-55
2022/06/29 00:29:27;;;;;;;2.30;2.10;;;;;;;;;;5051513;28;20208;-54
2022/06/29 00:31:53;;;;;;;2.50;1.90;;;;;;;;;;5051529;28;20231;-54
2022/06/29 00:34:19;;;;;;;3.50;1.90;;;;;;;;;;5051357;28;20232;-54
2022/06/29 00:36:45;;;;;;;2.10;1.90;;;;;;;;;;5051185;28;20680;-54
2022/06/29 00:39:12;;;;;;;3.97;2.10;;;;;;;;;;5052369;28;20196;-55
2022/06/29 00:41:38;;;;;;;2.77;1.80;;;;;;;;;;5055152;28;20547;-54
2022/06/29 00:44:04;;;;;;;2.47;2.00;;;;;;;;;;5055157;28;20733;-54
2022/06/29 00:46:30;;;;;;;2.90;1.90;;;;;;;;;;5055021;28;20716;-55
2022/06/29 00:48:56;;;;;;;2.30;2.10;;;;;;;;;;5055236;28;20196;-54
2022/06/29 00:51:22;;;;;;;2.60;2.00;;;;;;;;;;5055007;28;20571;-54
2022/06/29 00:53:49;;;;;;;3.40;1.97;;;;;;;;;;5054817;28;20745;-54
2022/06/29 00:56:17;;;;;;;2.50;2.10;;;;;;;;;;5054916;28;20196;-54
2022/06/29 00:58:45;;;;;;;4.43;2.07;;;;;;;;;;5054773;28;20223;-53
2022/06/29 01:01:12;;;;;;;3.17;1.97;;;;;;;;;;5054911;28;20667;-53
2022/06/29 01:03:39;;;;;;;4.67;2.13;;;;;;;;;;5054859;28;20204;-54
2022/06/29 01:06:05;;;;;;;4.73;2.03;;;;;;;;;;5054825;28;20236;-54
2022/06/29 01:08:32;;;;;;;4.03;2.37;;;;;;;;;;5054618;28;20212;-54
2022/06/29 01:10:58;;;;;;;2.17;2.00;;;;;;;;;;5054676;28;20611;-54
2022/06/29 01:13:25;;;;;;;4.17;2.10;;;;;;;;;;5054375;28;20228;-54
2022/06/29 01:15:51;;;;;;;3.03;2.17;;;;;;;;;;5054660;28;20211;-54
2022/06/29 01:18:17;;;;;;;2.13;2.03;;;;;;;;;;5054735;28;20196;-54
2022/06/29 01:20:43;;;;;;;2.00;1.90;;;;;;;;;;5054252;28;20214;-54
2022/06/29 01:23:10;;;;;;;2.37;1.90;;;;;;;;;;5054505;28;20200;-53
2022/06/29 01:25:37;;;;;;;2.30;1.90;;;;;;;;;;5054206;28;20220;-54
2022/06/29 01:28:03;;;;;;;2.50;1.90;;;;;;;;;;5054414;28;20544;-54
2022/06/29 01:30:29;;;;;;;2.37;1.90;;;;;;;;;;5054310;28;20204;-54
2022/06/29 01:32:55;;;;;;;2.17;1.90;;;;;;;;;;5054470;28;20601;-54
2022/06/29 01:35:23;;;;;;;3.27;2.00;;;;;;;;;;5053976;28;20315;-54
2022/06/29 01:37:49;;;;;;;2.00;1.90;;;;;;;;;;5054409;28;20208;-54
2022/06/29 01:40:17;;;;;;;4.23;1.87;;;;;;;;;;5054185;28;20266;-53
2022/06/29 01:42:43;;;;;;;2.33;2.00;;;;;;;;;;5054265;28;20212;-54
2022/06/29 01:45:09;;;;;;;2.50;2.10;;;;;;;;;;5054071;28;20293;-53
2022/06/29 01:47:35;;;;;;;4.53;2.00;;;;;;;;;;5053989;28;20287;-55
2022/06/29 01:50:01;;;;;;;2.00;1.90;;;;;;;;;;5053984;28;20266;-53
2022/06/29 01:52:27;;;;;;;2.00;1.90;;;;;;;;;;5053306;28;20625;-55
2022/06/29 01:54:53;;;;;;;2.17;1.97;;;;;;;;;;5053853;28;20228;-54
2022/06/29 01:57:20;;;;;;;2.10;1.90;;;;;;;;;;5053881;28;20250;-54
2022/06/29 01:59:46;;;;;;;4.17;2.27;;;;;;;;;;5053792;28;20196;-54
2022/06/29 02:02:12;;;;;;;3.77;2.23;;;;;;;;;;5053785;28;20203;-55
2022/06/29 02:04:38;;;;;;;3.93;2.20;;;;;;;;;;5053648;28;20192;-54
2022/06/29 02:07:04;;;;;;;2.47;2.27;;;;;;;;;;5053757;28;20280;-55
2022/06/29 02:09:30;;;;;;;2.73;2.13;;;;;;;;;;5053611;28;20715;-53
2022/06/29 02:11:56;;;;;;;3.33;2.20;;;;;;;;;;5053709;28;20200;-54
2022/06/29 02:14:23;;;;;;;2.00;1.90;;;;;;;;;;5053455;28;20238;-53
2022/06/29 02:16:49;;;;;;;2.33;2.10;;;;;;;;;;5053913;28;20207;-53
2022/06/29 02:19:15;;;;;;;4.03;2.40;;;;;;;;;;5053480;28;20204;-54
2022/06/29 02:21:41;;;;;;;2.90;2.13;;;;;;;;;;5053395;28;20251;-53
2022/06/29 02:24:07;;;;;;;2.83;2.10;;;;;;;;;;5053344;28;20571;-54
2022/06/29 02:26:33;;;;;;;3.40;2.17;;;;;;;;;;5053029;28;20215;-53
2022/06/29 02:28:59;;;;;;;3.17;2.10;;;;;;;;;;5052614;28;20736;-53
2022/06/29 02:36:56;;;;;;;2.33;2.13;;;;;;;;;;5052899;28;20259;-54
2022/06/29 02:39:22;;;;;;;2.40;2.20;;;;;;;;;;5052861;28;20247;-53
2022/06/29 02:41:48;;;;;;;3.00;2.30;;;;;;;;;;5052850;28;20200;-53
2022/06/29 02:44:14;;;;;;;2.53;2.33;;;;;;;;;;5052902;28;20199;-53
2022/06/29 02:46:41;;;;;;;3.70;2.20;;;;;;;;;;5052718;28;20577;-52
2022/06/29 02:49:07;;;;;;;2.90;1.90;;;;;;;;;;5052720;28;20554;-53
2022/06/29 02:51:33;;;;;;;2.70;2.30;;;;;;;;;;5052643;28;20694;-53
2022/06/29 02:53:59;;;;;;;6.80;2.50;;;;;;;;;;5052438;28;20224;-53
2022/06/29 02:56:25;;;;;;;3.37;2.30;;;;;;;;;;5052593;28;20283;-52
2022/06/29 02:58:51;;;;;;;3.23;2.30;;;;;;;;;;5052461;28;20237;-52
2022/06/29 03:01:17;;;;;;;2.40;2.17;;;;;;;;;;5052498;28;20278;-54
2022/06/29 03:03:45;;;;;;;2.73;2.30;;;;;;;;;;5052264;28;20303;-53
2022/06/29 03:06:11;;;;;;;3.50;2.57;;;;;;;;;;5052548;28;20206;-53
2022/06/29 03:08:37;;;;;;;2.43;2.23;;;;;;;;;;5052257;28;20730;-52
2022/06/29 03:11:03;;;;;;;2.10;2.00;;;;;;;;;;5052355;28;20515;-53
2022/06/29 03:13:29;;;;;;;4.00;2.30;;;;;;;;;;5051978;28;20624;-53
2022/06/29 03:15:55;;;;;;;3.70;2.50;;;;;;;;;;5052266;28;20242;-53
2022/06/29 03:18:21;;;;;;;2.70;2.50;;;;;;;;;;5052070;28;20719;-53
2022/06/29 03:20:48;;;;;;;3.57;2.57;;;;;;;;;;5052185;28;20282;-53
2022/06/29 03:23:14;;;;;;;2.77;2.47;;;;;;;;;;5051998;28;20204;-54
2022/06/29 03:25:40;;;;;;;3.33;2.50;;;;;;;;;;5051964;28;20220;-55
2022/06/29 03:28:07;;;;;;;3.70;2.83;;;;;;;;;;5051957;28;20206;-54
2022/06/29 03:30:33;;;;;;;3.40;2.60;;;;;;;;;;5051829;28;20184;-54
2022/06/29 03:32:59;;;;;;;2.87;2.60;;;;;;;;;;5051945;28;20223;-54
2022/06/29 03:35:25;;;;;;;2.57;2.37;;;;;;;;;;5051758;28;20336;-53
2022/06/29 03:37:52;;;;;;;2.70;2.50;;;;;;;;;;5051912;28;20625;-54
2022/06/29 03:40:18;;;;;;;4.07;2.67;;;;;;;;;;5051827;28;20211;-55
2022/06/29 03:42:44;;;;;;;3.77;2.90;;;;;;;;;;5051780;28;20275;-53
2022/06/29 03:45:10;;;;;;;3.03;2.50;;;;;;;;;;5051805;28;20615;-53
2022/06/29 03:47:36;;;;;;;3.43;2.63;;;;;;;;;;5051665;28;20674;-53
2022/06/29 03:50:03;;;;;;;2.90;2.60;;;;;;;;;;5051764;28;20200;-53
2022/06/29 03:52:29;;;;;;;2.67;2.47;;;;;;;;;;5051921;28;20262;-53
2022/06/29 03:54:56;;;;;;;3.07;2.63;;;;;;;;;;5051853;28;20302;-54
2022/06/29 03:57:22;;;;;;;3.87;3.20;;;;;;;;;;5051709;28;20196;-54
2022/06/29 03:59:48;;;;;;;5.07;3.37;;;;;;;;;;5051616;28;20222;-53
2022/06/29 04:02:14;;;;;;;4.17;2.97;;;;;;;;;;5051647;28;20204;-53
2022/06/29 04:04:40;;;;;;;5.83;3.40;;;;;;;;;;5051495;28;20574;-53
2022/06/29 04:07:06;;;;;;;5.60;3.50;;;;;;;;;;5051630;28;20610;-53
2022/06/29 04:09:32;;;;;;;3.10;2.80;;;;;;;;;;5051541;28;20200;-54
2022/06/29 04:11:59;;;;;;;4.03;3.03;;;;;;;;;;5051522;28;20207;-54
2022/06/29 04:14:26;;;;;;;4.27;3.63;;;;;;;;;;5052553;28;20318;-53
2022/06/29 04:16:53;;;;;;;5.27;3.20;;;;;;;;;;5055476;28;20567;-54
2022/06/29 04:19:19;;;;;;;3.37;2.90;;;;;;;;;;5055583;28;20224;-53
2022/06/29 04:21:46;;;;;;;4.20;2.97;;;;;;;;;;5055444;28;20196;-54
2022/06/29 04:24:12;;;;;;;3.57;2.57;;;;;;;;;;5055637;28;20196;-53
2022/06/29 04:26:38;;;;;;;4.07;2.80;;;;;;;;;;5055404;28;20220;-53
2022/06/29 04:29:06;;;;;;;3.47;2.57;;;;;;;;;;5055408;28;20204;-53
2022/06/29 04:31:32;;;;;;;3.47;2.87;;;;;;;;;;5055209;28;20212;-52
2022/06/29 04:33:58;;;;;;;5.90;2.70;;;;;;;;;;5055173;28;20589;-52
2022/06/29 04:36:24;;;;;;;5.60;2.70;;;;;;;;;;5055078;28;20281;-53
2022/06/29 04:38:51;;;;;;;2.73;2.33;;;;;;;;;;5054954;28;20564;-52
2022/06/29 04:41:17;;;;;;;3.87;3.00;;;;;;;;;;5055032;28;20490;-54
2022/06/29 04:43:43;;;;;;;4.13;2.60;;;;;;;;;;5055003;28;20785;-53
2022/06/29 04:46:19;;;;;;;3.43;2.60;;;;;;;;;;5055128;28;20228;-53
2022/06/29 04:48:45;;;;;;;4.07;2.97;;;;;;;;;;5054849;28;20228;-54
2022/06/29 04:51:11;;;;;;;3.13;2.60;;;;;;;;;;5055047;28;20211;-53
2022/06/29 04:53:37;;;;;;;2.80;2.60;;;;;;;;;;5054625;28;20250;-53
2022/06/29 04:56:04;;;;;;;4.83;2.50;;;;;;;;;;5054849;28;20224;-52
2022/06/29 04:58:30;;;;;;;5.90;2.80;;;;;;;;;;5054612;28;20200;-53
2022/06/29 05:00:56;;;;;;;4.03;2.80;;;;;;;;;;5054834;28;20204;-52
2022/06/29 05:03:23;;;;;;;3.47;2.80;;;;;;;;;;5054647;28;20218;-53
2022/06/29 05:05:49;;;;;;;3.30;3.00;;;;;;;;;;5054362;28;20723;-52
2022/06/29 05:08:16;;;;;;;5.60;2.67;;;;;;;;;;5054729;28;20204;-53
2022/06/29 05:10:42;;;;;;;4.43;2.90;;;;;;;;;;5054533;28;20196;-53
2022/06/29 05:13:11;;;;;;;5.33;2.30;;;;;;;;;;5054616;28;20211;-53
2022/06/29 05:15:37;;;;;;;5.10;2.67;;;;;;;;;;5054108;28;20221;-54
2022/06/29 05:18:03;;;;;;;4.73;2.63;;;;;;;;;;5054399;28;20207;-53
2022/06/29 05:20:31;;;;;;;4.53;2.50;;;;;;;;;;5054185;28;20207;-53
2022/06/29 05:22:57;;;;;;;3.30;2.30;;;;;;;;;;5054285;28;20223;-53
2022/06/29 05:25:23;;;;;;;2.77;2.23;;;;;;;;;;5053521;28;20251;-52
2022/06/29 05:27:50;;;;;;;3.63;2.80;;;;;;;;;;5053529;28;20287;-52
2022/06/29 05:30:16;;;;;;;3.73;2.97;;;;;;;;;;5054163;28;20203;-53
2022/06/29 05:32:42;;;;;;;4.60;2.90;;;;;;;;;;5054221;28;20196;-52
2022/06/29 05:35:09;;;;;;;3.50;2.33;;;;;;;;;;5054039;28;20603;-51
2022/06/29 05:37:36;;;;;;;6.60;2.40;;;;;;;;;;5053873;28;20284;-54
2022/06/29 05:40:02;;;;;;;5.23;3.03;;;;;;;;;;5053798;28;20251;-53
2022/06/29 05:42:28;;;;;;;2.80;2.50;;;;;;;;;;5053777;28;20204;-52
2022/06/29 05:44:55;;;;;;;7.13;2.30;;;;;;;;;;5053837;28;20192;-53
2022/06/29 05:47:21;;;;;;;3.37;2.77;;;;;;;;;;5053639;28;20230;-53
2022/06/29 05:49:47;;;;;;;5.33;2.33;;;;;;;;;;5053499;28;20202;-52
2022/06/29 05:52:13;;;;;;;2.93;2.30;;;;;;;;;;5053886;28;20214;-53
2022/06/29 05:54:40;;;;;;;5.33;2.60;;;;;;;;;;5053702;28;20317;-52
2022/06/29 05:57:06;;;;;;;3.97;2.77;;;;;;;;;;5053964;28;20213;-53
2022/06/29 05:59:32;;;;;;;3.83;2.53;;;;;;;;;;5053514;28;20206;-53
2022/06/29 06:01:58;;;;;;;4.67;2.50;;;;;;;;;;5053501;28;20213;-53
2022/06/29 06:04:25;;;;;;;2.77;2.57;;;;;;;;;;5053650;28;20561;-53
2022/06/29 06:06:51;;;;;;;6.07;2.60;;;;;;;;;;5053467;28;20207;-53
2022/06/29 06:09:21;;;;;;;3.60;2.40;;;;;;;;;;5053470;28;20217;-53
2022/06/29 06:11:48;;;;;;;3.10;2.37;;;;;;;;;;5053238;28;20520;-54
2022/06/29 06:14:14;;;;;;;3.40;2.70;;;;;;;;;;5053314;28;20228;-53
2022/06/29 06:16:40;;;;;;;3.60;2.40;;;;;;;;;;5052942;28;20219;-54
2022/06/29 06:19:06;;;;;;;2.53;2.27;;;;;;;;;;5053084;28;20254;-54
2022/06/29 06:21:32;;;;;;;4.30;2.80;;;;;;;;;;5052523;28;20214;-54
2022/06/29 06:23:58;;;;;;;3.60;2.33;;;;;;;;;;5052536;28;20195;-54
2022/06/29 06:26:24;;;;;;;2.60;2.40;;;;;;;;;;5053161;28;20740;-54
2022/06/29 06:28:52;;;;;;;4.30;2.30;;;;;;;;;;5052967;28;20751;-54
2022/06/29 06:31:18;;;;;;;3.77;2.60;;;;;;;;;;5053096;28;20401;-54
2022/06/29 06:33:44;;;;;;;2.53;2.10;;;;;;;;;;5052688;28;20662;-53
2022/06/29 06:36:10;;;;;;;3.93;2.50;;;;;;;;;;5052955;28;20408;-53
2022/06/29 06:38:36;;;;;;;4.03;2.20;;;;;;;;;;5052459;28;20575;-53
2022/06/29 06:43:47;;;;;;;2.93;2.40;;;;;;;;;;5052720;28;20265;-53
2022/06/29 06:46:14;;;;;;;3.30;2.30;;;;;;;;;;5052676;28;20568;-54
2022/06/29 06:48:40;;;;;;;3.30;2.40;;;;;;;;;;5052305;28;20204;-55
2022/06/29 06:51:06;;;;;;;2.73;2.23;;;;;;;;;;5052948;28;20287;-56
2022/06/29 06:53:32;;;;;;;2.97;2.50;;;;;;;;;;5052754;28;20242;-55
2022/06/29 06:55:58;;;;;;;3.10;2.00;;;;;;;;;;5052586;28;20315;-55
2022/06/29 06:58:24;;;;;;;4.17;2.30;;;;;;;;;;5052640;28;20219;-55
2022/06/29 07:00:50;;;;;;;4.20;2.33;;;;;;;;;;5052493;28;20223;-55
2022/06/29 07:03:17;;;;;;;3.83;2.33;;;;;;;;;;5052365;28;20211;-56
2022/06/29 07:05:43;;;;;;;3.40;2.20;;;;;;;;;;5052486;28;20616;-55
2022/06/29 07:08:09;;;;;;;5.03;2.27;;;;;;;;;;5052470;28;20686;-55
2022/06/29 07:10:35;;;;;;;5.10;2.20;;;;;;;;;;5052260;28;20196;-55
2022/06/29 07:13:01;;;;;;;3.10;2.40;;;;;;;;;;5052166;28;20604;-58
2022/06/29 07:15:27;;;;;;;2.90;2.37;;;;;;;;;;5052095;28;20320;-56
2022/06/29 07:17:54;;;;;;;4.90;2.57;;;;;;;;;;5052140;28;20227;-55
2022/06/29 07:20:21;;;;;;;2.60;2.37;;;;;;;;;;5052184;28;20207;-56
2022/06/29 07:22:47;;;;;;;3.37;2.27;;;;;;;;;;5052854;28;20278;-55
2022/06/29 07:25:13;;;;;;;2.80;2.40;;;;;;;;;;5052048;28;20295;-55
2022/06/29 07:27:39;;;;;;;2.47;2.27;;;;;;;;;;5052194;28;20707;-55
2022/06/29 07:30:06;;;;;;;2.83;2.53;;;;;;;;;;5052269;28;20207;-54
2022/06/29 07:32:32;;;;;;;4.07;2.53;;;;;;;;;;5052037;28;20204;-55
2022/06/29 07:34:58;;;;;;;3.10;2.43;;;;;;;;;;5051998;28;20239;-53
2022/06/29 07:37:25;;;;;;;3.07;2.60;;;;;;;;;;5051889;28;20263;-55
2022/06/29 07:39:51;;;;;;;2.63;2.40;;;;;;;;;;5049919;28;20216;-54
2022/06/29 07:42:17;;;;;;;2.87;2.40;;;;;;;;;;5051622;28;20201;-54
2022/06/29 07:44:43;;;;;;;4.70;3.03;;;;;;;;;;5051626;28;20193;-54
2022/06/29 07:47:09;;;;;;;4.57;2.60;;;;;;;;;;5051725;28;20213;-55
2022/06/29 07:49:35;;;;;;;3.07;2.60;;;;;;;;;;5050763;28;20197;-55
2022/06/29 07:52:01;;;;;;;3.00;2.33;;;;;;;;;;5051606;28;20237;-55
2022/06/29 07:54:28;;;;;;;3.97;2.50;;;;;;;;;;5051512;28;20213;-55
2022/06/29 07:56:54;;;;;;;2.40;2.20;;;;;;;;;;5051727;28;20288;-55
2022/06/29 07:59:20;;;;;;;2.93;2.30;;;;;;;;;;5051480;28;20230;-56
2022/06/29 08:01:46;;;;;;;4.57;2.40;;;;;;;;;;5051369;28;20233;-55
2022/06/29 08:04:12;;;;;;;3.00;2.70;;;;;;;;;;5051594;28;20195;-55
2022/06/29 08:06:38;;;;;;;4.40;2.60;;;;;;;;;;5051392;28;20203;-54
2022/06/29 08:09:05;;;;;;;2.90;2.60;;;;;;;;;;5051359;28;20735;-55
2022/06/29 08:11:33;;;;;;;4.60;2.50;;;;;;;;;;5051216;28;20868;-54
2022/06/29 08:13:59;;;;;;;6.80;2.50;;;;;;;;;;5051424;28;20214;-54
2022/06/29 08:16:25;;;;;;;3.63;2.70;;;;;;;;;;5051436;28;20208;-54
2022/06/29 08:18:51;;;;;;;5.23;2.63;;;;;;;;;;5051550;28;20659;-54
2022/06/29 08:21:17;;;;;;;4.33;2.50;;;;;;;;;;5051673;28;20558;-55
2022/06/29 08:23:43;;;;;;;2.80;2.53;;;;;;;;;;5050965;28;20298;-55
2022/06/29 08:26:09;;;;;;;4.60;2.80;;;;;;;;;;5051240;28;20219;-55
2022/06/29 08:28:36;;;;;;;6.83;2.60;;;;;;;;;;5051078;28;20655;-55
2022/06/29 08:31:02;;;;;;;8.43;2.80;;;;;;;;;;5051285;28;20204;-55
2022/06/29 08:33:28;;;;;;;3.00;2.47;;;;;;;;;;5051133;28;20567;-54
2022/06/29 08:35:54;;;;;;;3.27;2.30;;;;;;;;;;5051171;28;20271;-55
2022/06/29 08:38:20;;;;;;;3.30;2.50;;;;;;;;;;5051225;28;20196;-55
2022/06/29 08:40:47;;;;;;;4.40;2.60;;;;;;;;;;5050949;28;20258;-55
2022/06/29 08:43:14;;;;;;;4.03;2.53;;;;;;;;;;5051170;28;20222;-55
2022/06/29 08:45:45;;;;;;;4.53;2.70;;;;;;;;;;5050772;28;20291;-55
2022/06/29 08:48:12;;;;;;;9.93;3.20;;;;;;;;;;5051228;28;20291;-55
2022/06/29 08:50:38;;;;;;;2.77;2.30;;;;;;;;;;5050860;28;20280;-55
2022/06/29 08:53:06;;;;;;;3.30;2.60;;;;;;;;;;5051040;28;20200;-55
2022/06/29 08:55:33;;;;;;;4.97;2.60;;;;;;;;;;5050398;28;20239;-55
2022/06/29 08:58:00;;;;;;;4.03;2.50;;;;;;;;;;5051358;28;20196;-55
2022/06/29 09:00:27;;;;;;;3.13;2.70;;;;;;;;;;5067116;28;20215;-55
2022/06/29 09:02:54;;;;;;;7.03;2.97;;;;;;;;;;5054244;28;20180;-55
2022/06/29 09:05:20;;;;;;;4.53;2.97;;;;;;;;;;5054673;28;20766;-54
2022/06/29 09:07:46;;;;;;;4.27;2.70;;;;;;;;;;5054556;28;20227;-55
2022/06/29 09:10:17;;;;;;;3.67;2.60;;;;;;;;;;5052799;28;20564;-55
2022/06/29 09:12:49;;;;;;;7.10;2.80;;;;;;;;;;5054469;28;20621;-55
2022/06/29 09:15:16;;;;;;;5.40;2.80;;;;;;;;;;5054239;28;20221;-56
2022/06/29 09:17:42;;;;;;;6.60;2.83;;;;;;;;;;5054480;28;20609;-54
2022/06/29 09:20:13;;;;;;;2.87;2.53;;;;;;;;;;5054334;28;20706;-54
2022/06/29 09:22:41;;;;;;;2.80;2.53;;;;;;;;;;5054241;28;20240;-55
2022/06/29 09:25:20;;;;;;;2.60;2.40;;;;;;;;;;5054288;28;20198;-55
2022/06/29 09:27:49;;;;;;;3.00;2.70;;;;;;;;;;5054234;28;20300;-55
2022/06/29 09:30:25;;;;;;;3.73;2.50;;;;;;;;;;5054694;28;20194;-55
2022/06/29 09:32:59;;;;;;;4.63;2.47;;;;;;;;;;5053664;28;20200;-54
2022/06/29 09:35:26;;;;;;;3.87;2.40;;;;;;;;;;5053797;28;20239;-54
2022/06/29 09:37:52;;;;;;;3.83;2.30;;;;;;;;;;5051931;28;20229;-54
2022/06/29 09:40:18;;;;;;;3.63;2.50;;;;;;;;;;5054158;28;20713;-55
2022/06/29 09:42:44;;;;;;;2.97;2.30;;;;;;;;;;5053951;28;20199;-55
2022/06/29 09:45:10;;;;;;;2.40;2.20;;;;;;;;;;5054154;28;20201;-55
2022/06/29 09:47:37;;;;;;;5.53;2.40;;;;;;;;;;5053881;28;20609;-55
2022/06/29 09:50:06;;;;;;;3.53;2.63;;;;;;;;;;5054122;28;20199;-55
2022/06/29 09:52:33;;;;;;;2.37;2.17;;;;;;;;;;5053974;28;20216;-54
2022/06/29 09:55:00;;;;;;;2.70;2.37;;;;;;;;;;5053802;28;20295;-55
2022/06/29 09:57:28;;;;;;;3.10;2.30;;;;;;;;;;5054033;28;20194;-57
2022/06/29 10:02:42;;;;;;;4.20;2.00;;;;;;;;;;5053715;28;20232;-55
2022/06/29 10:05:09;;;;;;;5.32;2.47;;;;;;;;;;5052600;28;20854;-55
2022/06/29 10:07:37;;;;;;;2.83;2.20;;;;;;;;;;5053291;28;20206;-55
2022/06/29 10:10:04;;;;;;;2.47;2.27;;;;;;;;;;5053522;28;20852;-55
2022/06/29 10:15:25;;;;;;;3.60;2.03;;;;;;;;;;5053439;28;20234;-55
2022/06/29 10:17:55;;;;;;;3.93;2.40;;;;;;;;;;5053377;28;20203;-55
2022/06/29 10:20:28;;;;;;;3.97;2.40;;;;;;;;;;5053517;28;20409;-55
2022/06/29 10:22:55;;;;;;;2.30;1.97;;;;;;;;;;5053440;28;20204;-55
2022/06/29 10:25:28;;;;;;;3.10;1.97;;;;;;;;;;5053071;28;20269;-55
2022/06/29 10:28:16;;;;;;;3.47;2.00;;;;;;;;;;5053332;28;20656;-55
2022/06/29 10:30:43;;;;;;;5.60;1.90;;;;;;;;;;5053335;28;20669;-55
2022/06/29 10:33:29;;;;;;;1.90;1.73;;;;;;;;;;5053296;28;20207;-55
2022/06/29 10:35:57;;;;;;;2.40;1.87;;;;;;;;;;5052809;28;20709;-55
2022/06/29 10:38:24;;;;;;;2.67;1.83;;;;;;;;;;5052926;28;20387;-54
2022/06/29 10:41:06;;;;;;;2.27;1.70;;;;;;;;;;5053147;28;20624;-54
2022/06/29 10:43:32;;;;;;;3.87;1.67;;;;;;;;;;5052988;28;20947;-55
2022/06/29 10:45:58;;;;;;;2.33;1.80;;;;;;;;;;5052928;28;20252;-55
2022/06/29 10:48:26;;;;;;;2.37;1.80;;;;;;;;;;5052960;28;20221;-55
2022/06/29 10:50:52;;;;;;;4.47;2.00;;;;;;;;;;5052767;28;20265;-55
2022/06/29 10:53:19;;;;;;;3.03;1.90;;;;;;;;;;5053084;28;20620;-54
2022/06/29 10:55:48;;;;;;;2.70;2.10;;;;;;;;;;5052597;28;20235;-55
2022/06/29 10:58:14;;;;;;;4.37;2.03;;;;;;;;;;5052721;28;20214;-55
2022/06/29 11:00:41;;;;;;;2.10;1.90;;;;;;;;;;5052681;28;20204;-55
2022/06/29 11:03:09;;;;;;;2.50;2.00;;;;;;;;;;5052661;28;20636;-54
2022/06/29 11:05:35;;;;;;;3.00;1.80;;;;;;;;;;5052535;28;20272;-55
2022/06/29 11:13:32;;;;;;;2.90;1.90;;;;;;;;;;5052084;28;20208;-55
2022/06/29 11:15:58;;;;;;;2.47;2.00;;;;;;;;;;5052060;28;20231;-55
2022/06/29 11:18:29;;;;;;;3.80;1.97;;;;;;;;;;5052219;28;20221;-56
2022/06/29 11:21:02;;;;;;;2.47;2.10;;;;;;;;;;5052048;28;20199;-56
2022/06/29 11:23:28;;;;;;;1.87;1.70;;;;;;;;;;5051853;28;20196;-55
2022/06/29 11:25:56;;;;;;;3.00;2.07;;;;;;;;;;5051723;28;20632;-54
2022/06/29 11:28:23;;;;;;;2.23;2.03;;;;;;;;;;5052155;28;20248;-54
2022/06/29 11:30:59;;;;;;;5.43;2.10;;;;;;;;;;5051801;28;20318;-54
2022/06/29 11:33:26;;;;;;;1.90;1.80;;;;;;;;;;5052157;28;20232;-55
2022/06/29 11:35:52;;;;;;;4.93;2.00;;;;;;;;;;5051628;28;20300;-55
2022/06/29 11:38:18;;;;;;;2.77;1.90;;;;;;;;;;5052139;28;20197;-55
2022/06/29 11:40:46;;;;;;;2.40;1.67;;;;;;;;;;5051438;28;20680;-55
2022/06/29 11:43:15;;;;;;;1.90;1.70;;;;;;;;;;5051910;28;20222;-54
2022/06/29 11:45:45;;;;;;;3.47;1.80;;;;;;;;;;5051666;28;20743;-54
2022/06/29 11:48:12;;;;;;;2.70;2.10;;;;;;;;;;5051786;28;20611;-54
2022/06/29 11:50:42;;;;;;;2.30;1.93;;;;;;;;;;5052101;28;20553;-54
2022/06/29 11:53:08;;;;;;;2.17;1.97;;;;;;;;;;5052069;28;20197;-55
2022/06/29 11:55:42;;;;;;;4.43;1.97;;;;;;;;;;5051724;28;20245;-55
2022/06/29 11:58:11;;;;;;;3.87;1.93;;;;;;;;;;5051979;28;20196;-55
2022/06/29 12:00:41;;;;;;;3.00;1.87;;;;;;;;;;5051948;28;20201;-55
2022/06/29 12:03:08;;;;;;;2.03;1.80;;;;;;;;;;5051578;28;20201;-55
2022/06/29 12:05:36;;;;;;;4.97;2.10;;;;;;;;;;5051548;28;20223;-55
2022/06/29 12:08:02;;;;;;;2.07;1.80;;;;;;;;;;5051901;28;20226;-55
2022/06/29 12:10:28;;;;;;;4.50;1.80;;;;;;;;;;5051910;28;20621;-55
2022/06/29 12:12:54;;;;;;;2.87;1.77;;;;;;;;;;5051704;28;20904;-55
2022/06/29 12:15:20;;;;;;;1.80;1.70;;;;;;;;;;5051611;28;20227;-55
2022/06/29 12:17:47;;;;;;;1.90;1.70;;;;;;;;;;5051528;28;20216;-55
2022/06/29 12:20:13;;;;;;;4.70;1.70;;;;;;;;;;5051682;28;20209;-55
2022/06/29 12:22:39;;;;;;;3.73;2.10;;;;;;;;;;5051560;28;20196;-55
2022/06/29 12:25:06;;;;;;;1.90;1.70;;;;;;;;;;5051619;28;20201;-55
2022/06/29 12:27:32;;;;;;;3.03;1.80;;;;;;;;;;5051277;28;20973;-54
2022/06/29 12:29:58;;;;;;;1.90;1.73;;;;;;;;;;5051469;28;20283;-55
2022/06/29 12:32:24;;;;;;;1.73;1.63;;;;;;;;;;5051456;28;20269;-54
2022/06/29 12:34:51;;;;;;;4.27;2.07;;;;;;;;;;5051440;28;20243;-54
2022/06/29 12:37:18;;;;;;;3.77;1.97;;;;;;;;;;5055279;28;20230;-54
2022/06/29 12:39:44;;;;;;;1.63;1.40;;;;;;;;;;5055069;28;20663;-54
2022/06/29 12:42:09;;;;;;;2.03;1.73;;;;;;;;;;5055278;28;20208;-54
2022/06/29 12:44:35;;;;;;;2.60;1.60;;;;;;;;;;5055412;28;20232;-54
2022/06/29 12:47:01;;;;;;;3.30;1.60;;;;;;;;;;5055260;28;20475;-55
2022/06/29 12:49:28;;;;;;;3.07;1.60;;;;;;;;;;5055260;28;20198;-54
2022/06/29 12:51:55;;;;;;;1.70;1.60;;;;;;;;;;5055080;28;20192;-54
2022/06/29 12:54:21;;;;;;;2.77;1.50;;;;;;;;;;5055238;28;20260;-55
2022/06/29 12:56:47;;;;;;;2.07;1.50;;;;;;;;;;5054981;28;20212;-54
2022/06/29 12:59:14;;;;;;;2.33;1.70;;;;;;;;;;5054973;28;20658;-55
2022/06/29 13:01:40;;;;;;;1.93;1.50;;;;;;;;;;5054967;28;20221;-55
2022/06/29 13:04:06;;;;;;;2.00;1.50;;;;;;;;;;5054833;28;20271;-55
2022/06/29 13:06:33;;;;;;;3.93;1.50;;;;;;;;;;5054902;28;20198;-55
2022/06/29 13:09:00;;;;;;;4.20;1.70;;;;;;;;;;5054795;28;20195;-55
2022/06/29 13:11:26;;;;;;;2.17;1.97;;;;;;;;;;5054855;28;20588;-55
2022/06/29 13:13:52;;;;;;;1.60;1.50;;;;;;;;;;5054567;28;20197;-54
2022/06/29 13:16:18;;;;;;;3.50;1.80;;;;;;;;;;5054331;28;20224;-54
2022/06/29 13:18:44;;;;;;;1.73;1.63;;;;;;;;;;5054582;28;20209;-54
2022/06/29 13:21:10;;;;;;;1.80;1.70;;;;;;;;;;5054698;28;20194;-55
2022/06/29 13:23:37;;;;;;;1.77;1.60;;;;;;;;;;5054429;28;20208;-54
2022/06/29 13:26:04;;;;;;;2.30;1.70;;;;;;;;;;5054617;28;20219;-55
2022/06/29 13:28:30;;;;;;;2.57;1.60;;;;;;;;;;5054564;28;20231;-54
2022/06/29 13:30:56;;;;;;;2.83;1.60;;;;;;;;;;5054505;28;20206;-55
2022/06/29 13:33:23;;;;;;;2.50;1.80;;;;;;;;;;5054182;28;20210;-54
2022/06/29 13:35:49;;;;;;;3.40;1.90;;;;;;;;;;5053670;28;20236;-55
2022/06/29 13:38:15;;;;;;;2.47;2.00;;;;;;;;;;5054124;28;20201;-55
2022/06/29 13:40:41;;;;;;;3.10;2.00;;;;;;;;;;5054352;28;20205;-55
2022/06/29 13:43:08;;;;;;;3.10;2.00;;;;;;;;;;5054390;28;20200;-53
2022/06/29 13:45:34;;;;;;;4.90;2.10;;;;;;;;;;5054178;28;20208;-52
2022/06/29 13:48:00;;;;;;;2.47;1.97;;;;;;;;;;5052868;28;20664;-53
2022/06/29 13:50:26;;;;;;;5.30;1.90;;;;;;;;;;5053759;28;20203;-53
2022/06/29 13:52:52;;;;;;;2.20;1.93;;;;;;;;;;5053760;28;20199;-54
2022/06/29 13:55:19;;;;;;;2.53;1.93;;;;;;;;;;5049263;28;20217;-53
2022/06/29 13:57:45;;;;;;;1.70;1.57;;;;;;;;;;5033483;28;20229;-53
2022/06/29 14:00:14;;;;;;;1.87;1.60;;;;;;;;;;5033939;28;20191;-52
2022/06/29 14:02:40;;;;;;;1.67;1.57;;;;;;;;;;5033956;28;20208;-54
2022/06/29 14:05:06;;;;;;;4.23;1.80;;;;;;;;;;5034134;28;20211;-52
2022/06/29 14:07:32;;;;;;;3.77;1.87;;;;;;;;;;5033730;28;20208;-51
2022/06/29 14:09:58;;;;;;;3.00;1.80;;;;;;;;;;5033702;28;20202;-52
2022/06/29 14:12:24;;;;;;;2.03;1.53;;;;;;;;;;5033944;28;20610;-53
2022/06/29 14:14:50;;;;;;;2.60;1.63;;;;;;;;;;5033517;28;20232;-55
2022/06/29 14:17:18;;;;;;;1.50;1.40;;;;;;;;;;5033473;28;20625;-51
2022/06/29 14:19:44;;;;;;;1.67;1.53;;;;;;;;;;5033390;28;20205;-54
2022/06/29 14:22:10;;;;;;;2.00;1.60;;;;;;;;;;5033637;28;20197;-54
2022/06/29 14:24:36;;;;;;;1.80;1.60;;;;;;;;;;5033343;28;20200;-53
2022/06/29 14:27:02;;;;;;;2.47;1.43;;;;;;;;;;5033374;28;20640;-54
2022/06/29 14:29:28;;;;;;;1.63;1.47;;;;;;;;;;5033457;28;20201;-53
2022/06/29 14:31:54;;;;;;;2.37;1.30;;;;;;;;;;5033133;28;20250;-53
2022/06/29 14:34:21;;;;;;;2.43;1.50;;;;;;;;;;5033405;28;20229;-53
2022/06/29 14:36:47;;;;;;;1.73;1.63;;;;;;;;;;5032979;28;20263;-53
2022/06/29 14:39:13;;;;;;;3.20;1.70;;;;;;;;;;5033286;28;20604;-53
2022/06/29 14:41:39;;;;;;;3.70;2.10;;;;;;;;;;5033359;28;20193;-53
2022/06/29 14:44:05;;;;;;;2.27;1.60;;;;;;;;;;5032929;28;20580;-54
2022/06/29 14:46:32;;;;;;;3.40;1.60;;;;;;;;;;5032900;28;20216;-53
2022/06/29 14:48:58;;;;;;;1.60;1.50;;;;;;;;;;5032884;28;20209;-54
2022/06/29 14:51:25;;;;;;;2.67;1.60;;;;;;;;;;5033080;28;20266;-53
2022/06/29 14:53:51;;;;;;;1.77;1.67;;;;;;;;;;5032784;28;20251;-53
2022/06/29 14:56:19;;;;;;;1.87;1.70;;;;;;;;;;5032691;28;20235;-53
2022/06/29 14:58:45;;;;;;;2.23;1.80;;;;;;;;;;5032413;28;20706;-53